sensor_id;sensor_type;location;lat;lon;timestamp;P1;P2;P0
64861;PMS5003;62652;42.274;-71.436;2023-11-18T00:00:00;2.00;0.33;0.10
64861;PMS5003;62652;42.274;-71.436;2023-11-18T00:01:00;1.37;1.27;0.47
64861;PMS5003;62652;42.274;-71.436;2023-11-18T00:02:00;1.27;0.77;0.57
64861;PMS5003;62652;42.274;-71.436;2023-11-18T00:03:00;2.27;1.27;0.67
64861;PMS5003;62652;42.274;-71.436;2023-11-18T00:04:00;1.87;1.17;0.77
64861;PMS5003;62652;42.274;-71.436;2023-11-18T00:05:00;1.97;1.87;0.87
64861;PMS5003;62652;42.274;-71.436;2023-11-18T00:06:00;1.40;1.30;0.80
64861;PMS5003;62652;42.274;-71.436;2023-11-18T00:07:00;3.10;2.80;2.00
64861;PMS5003;62652;42.274;-71.436;2023-11-18T00:08:00;2.03;1.33;1.13
64861;PMS5003;62652;42.274;-71.436;2023-11-18T00:09:00;1.60;1.60;1.00
64861;PMS5003;62652;42.274;-71.436;2023-11-18T00:10:00;2.37;1.77;0.67
64861;PMS5003;62652;42.274;-71.436;2023-11-18T00:11:00;2.43;1.53;0.63
64861;PMS5003;62652;42.274;-71.436;2023-11-18T00:12:00;2.77;2.37;1.17
64861;PMS5003;62652;42.274;-71.436;2023-11-18T00:13:00;4.37;3.17;1.87
64861;PMS5003;62652;42.274;-71.436;2023-11-18T00:14:00;2.07;1.67;1.47
64861;PMS5003;62652;42.274;-71.436;2023-11-18T00:15:00;1.50;1.50;1.20
64861;PMS5003;62652;42.274;-71.436;2023-11-18T00:16:00;2.00;1.60;0.80
64861;PMS5003;62652;42.274;-71.436;2023-11-18T00:17:00;3.10;2.70;2.00
64861;PMS5003;62652;42.274;-71.436;2023-11-18T00:18:00;2.50;1.90;1.00
64861;PMS5003;62652;42.274;-71.436;2023-11-18T00:19:00;2.53;2.03;1.93
64861;PMS5003;62652;42.274;-71.436;2023-11-18T00:20:00;2.80;2.00;1.00
64861;PMS5003;62652;42.274;-71.436;2023-11-18T00:21:00;3.50;2.00;1.00
64861;PMS5003;62652;42.274;-71.436;2023-11-18T00:22:00;1.77;1.47;0.67
64861;PMS5003;62652;42.274;-71.436;2023-11-18T00:23:00;1.40;0.90;0.70
64861;PMS5003;62652;42.274;-71.436;2023-11-18T00:24:00;1.53;1.33;0.53
64861;PMS5003;62652;42.274;-71.436;2023-11-18T00:25:00;1.00;1.00;0.60
64861;PMS5003;62652;42.274;-71.436;2023-11-18T00:26:00;1.90;1.50;0.90
64861;PMS5003;62652;42.274;-71.436;2023-11-18T00:27:00;2.23;1.13;0.63
64861;PMS5003;62652;42.274;-71.436;2023-11-18T00:28:00;1.57;1.57;0.87
64861;PMS5003;62652;42.274;-71.436;2023-11-18T00:29:00;2.00;1.80;1.50
64861;PMS5003;62652;42.274;-71.436;2023-11-18T00:30:00;2.10;2.10;1.30
64861;PMS5003;62652;42.274;-71.436;2023-11-18T00:31:00;3.00;2.50;1.60
64861;PMS5003;62652;42.274;-71.436;2023-11-18T00:32:00;1.10;1.10;1.00
64861;PMS5003;62652;42.274;-71.436;2023-11-18T00:33:00;1.20;1.20;0.80
64861;PMS5003;62652;42.274;-71.436;2023-11-18T00:34:00;0.63;0.63;0.27
64861;PMS5003;62652;42.274;-71.436;2023-11-18T00:35:00;1.13;0.83;0.33
64861;PMS5003;62652;42.274;-71.436;2023-11-18T00:36:00;1.80;1.60;0.80
64861;PMS5003;62652;42.274;-71.436;2023-11-18T00:37:00;1.77;1.37;0.77
64861;PMS5003;62652;42.274;-71.436;2023-11-18T00:38:00;1.63;1.63;0.73
64861;PMS5003;62652;42.274;-71.436;2023-11-18T00:39:00;2.50;2.20;1.40
64861;PMS5003;62652;42.274;-71.436;2023-11-18T00:40:00;2.20;1.00;0.30
64861;PMS5003;62652;42.274;-71.436;2023-11-18T00:41:00;2.40;2.10;1.10
64861;PMS5003;62652;42.274;-71.436;2023-11-18T00:42:00;3.10;3.00;1.90
64861;PMS5003;62652;42.274;-71.436;2023-11-18T00:43:00;1.40;1.40;0.90
64861;PMS5003;62652;42.274;-71.436;2023-11-18T00:44:00;1.30;1.30;0.70
64861;PMS5003;62652;42.274;-71.436;2023-11-18T00:45:00;3.90;2.30;1.10
64861;PMS5003;62652;42.274;-71.436;2023-11-18T00:46:00;2.20;1.30;0.90
64861;PMS5003;62652;42.274;-71.436;2023-11-18T00:47:00;2.70;2.30;1.10
64861;PMS5003;62652;42.274;-71.436;2023-11-18T00:48:00;2.97;2.57;0.77
64861;PMS5003;62652;42.274;-71.436;2023-11-18T00:49:00;1.67;1.67;0.37
64861;PMS5003;62652;42.274;-71.436;2023-11-18T00:50:00;2.97;2.07;1.07
64861;PMS5003;62652;42.274;-71.436;2023-11-18T00:51:00;0.80;0.70;0.50
64861;PMS5003;62652;42.274;-71.436;2023-11-18T00:52:00;1.80;1.40;1.30
64861;PMS5003;62652;42.274;-71.436;2023-11-18T00:53:00;2.20;2.20;1.50
64861;PMS5003;62652;42.274;-71.436;2023-11-18T00:54:00;2.53;1.23;0.43
64861;PMS5003;62652;42.274;-71.436;2023-11-18T00:55:00;3.50;3.00;1.90
64861;PMS5003;62652;42.274;-71.436;2023-11-18T00:56:01;2.00;2.00;1.60
64861;PMS5003;62652;42.274;-71.436;2023-11-18T00:57:00;1.90;1.80;1.00
64861;PMS5003;62652;42.274;-71.436;2023-11-18T00:58:00;3.37;2.17;1.47
64861;PMS5003;62652;42.274;-71.436;2023-11-18T00:59:00;2.63;2.03;0.73
64861;PMS5003;62652;42.274;-71.436;2023-11-18T01:00:00;1.80;1.80;1.00
64861;PMS5003;62652;42.274;-71.436;2023-11-18T01:01:00;1.60;1.60;0.90
64861;PMS5003;62652;42.274;-71.436;2023-11-18T01:02:00;1.77;1.77;0.97
64861;PMS5003;62652;42.274;-71.436;2023-11-18T01:03:00;3.90;2.90;2.00
64861;PMS5003;62652;42.274;-71.436;2023-11-18T01:04:00;2.00;1.70;0.90
64861;PMS5003;62652;42.274;-71.436;2023-11-18T01:05:00;2.60;2.30;1.70
64861;PMS5003;62652;42.274;-71.436;2023-11-18T01:06:00;2.50;2.00;1.30
64861;PMS5003;62652;42.274;-71.436;2023-11-18T01:07:00;1.43;1.13;0.73
64861;PMS5003;62652;42.274;-71.436;2023-11-18T01:08:00;2.10;1.70;0.50
64861;PMS5003;62652;42.274;-71.436;2023-11-18T01:09:00;2.07;1.77;1.07
64861;PMS5003;62652;42.274;-71.436;2023-11-18T01:10:00;3.10;2.90;2.10
64861;PMS5003;62652;42.274;-71.436;2023-11-18T01:11:00;1.90;1.90;1.00
64861;PMS5003;62652;42.274;-71.436;2023-11-18T01:12:00;2.60;1.70;1.00
64861;PMS5003;62652;42.274;-71.436;2023-11-18T01:13:00;3.07;1.97;1.87
64861;PMS5003;62652;42.274;-71.436;2023-11-18T01:14:00;3.10;3.10;1.90
64861;PMS5003;62652;42.274;-71.436;2023-11-18T01:15:00;2.80;2.40;1.60
64861;PMS5003;62652;42.274;-71.436;2023-11-18T01:16:00;3.10;3.00;2.10
64861;PMS5003;62652;42.274;-71.436;2023-11-18T01:17:00;3.10;2.90;1.40
64861;PMS5003;62652;42.274;-71.436;2023-11-18T01:18:00;1.50;1.40;0.90
64861;PMS5003;62652;42.274;-71.436;2023-11-18T01:19:00;1.07;0.97;0.23
64861;PMS5003;62652;42.274;-71.436;2023-11-18T01:20:00;2.07;1.67;0.87
64861;PMS5003;62652;42.274;-71.436;2023-11-18T01:21:01;2.67;2.67;1.77
64861;PMS5003;62652;42.274;-71.436;2023-11-18T01:22:00;2.00;2.00;1.30
64861;PMS5003;62652;42.274;-71.436;2023-11-18T01:23:00;2.30;2.30;1.30
64861;PMS5003;62652;42.274;-71.436;2023-11-18T01:24:00;3.30;2.60;1.10
64861;PMS5003;62652;42.274;-71.436;2023-11-18T01:25:00;3.00;2.80;1.60
64861;PMS5003;62652;42.274;-71.436;2023-11-18T01:26:00;2.20;2.00;1.30
64861;PMS5003;62652;42.274;-71.436;2023-11-18T01:27:00;2.60;2.40;1.50
64861;PMS5003;62652;42.274;-71.436;2023-11-18T01:28:00;3.20;2.70;1.20
64861;PMS5003;62652;42.274;-71.436;2023-11-18T01:29:00;2.87;1.87;0.87
64861;PMS5003;62652;42.274;-71.436;2023-11-18T01:30:00;2.37;1.57;0.87
64861;PMS5003;62652;42.274;-71.436;2023-11-18T01:31:00;1.80;1.80;1.00
64861;PMS5003;62652;42.274;-71.436;2023-11-18T01:32:00;1.90;1.80;1.30
64861;PMS5003;62652;42.274;-71.436;2023-11-18T01:33:00;3.20;2.50;0.90
64861;PMS5003;62652;42.274;-71.436;2023-11-18T01:34:00;3.80;2.30;1.70
64861;PMS5003;62652;42.274;-71.436;2023-11-18T01:35:00;2.47;1.37;0.77
64861;PMS5003;62652;42.274;-71.436;2023-11-18T01:36:00;3.10;2.00;1.40
64861;PMS5003;62652;42.274;-71.436;2023-11-18T01:37:00;2.40;1.90;1.30
64861;PMS5003;62652;42.274;-71.436;2023-11-18T01:38:00;4.07;3.67;1.87
64861;PMS5003;62652;42.274;-71.436;2023-11-18T01:39:00;3.77;2.57;1.87
64861;PMS5003;62652;42.274;-71.436;2023-11-18T01:40:00;2.60;2.10;1.40
64861;PMS5003;62652;42.274;-71.436;2023-11-18T01:41:00;3.50;2.10;1.60
64861;PMS5003;62652;42.274;-71.436;2023-11-18T01:42:00;2.70;2.70;1.00
64861;PMS5003;62652;42.274;-71.436;2023-11-18T01:43:00;3.20;2.50;1.10
64861;PMS5003;62652;42.274;-71.436;2023-11-18T01:44:00;2.07;2.07;1.87
64861;PMS5003;62652;42.274;-71.436;2023-11-18T01:45:00;1.20;0.80;0.17
64861;PMS5003;62652;42.274;-71.436;2023-11-18T01:46:01;2.80;2.60;1.90
64861;PMS5003;62652;42.274;-71.436;2023-11-18T01:47:00;2.50;2.10;1.00
64861;PMS5003;62652;42.274;-71.436;2023-11-18T01:48:00;3.13;2.83;1.13
64861;PMS5003;62652;42.274;-71.436;2023-11-18T01:49:00;3.60;3.10;2.00
64861;PMS5003;62652;42.274;-71.436;2023-11-18T01:50:00;3.70;2.90;1.90
64861;PMS5003;62652;42.274;-71.436;2023-11-18T01:51:00;1.47;1.47;0.47
64861;PMS5003;62652;42.274;-71.436;2023-11-18T01:52:00;3.10;2.10;1.00
64861;PMS5003;62652;42.274;-71.436;2023-11-18T01:53:00;2.97;2.97;1.87
64861;PMS5003;62652;42.274;-71.436;2023-11-18T01:54:00;2.00;2.00;1.40
64861;PMS5003;62652;42.274;-71.436;2023-11-18T01:55:00;1.20;1.00;0.50
64861;PMS5003;62652;42.274;-71.436;2023-11-18T01:56:00;1.87;1.87;0.97
64861;PMS5003;62652;42.274;-71.436;2023-11-18T01:57:00;2.03;1.93;0.93
64861;PMS5003;62652;42.274;-71.436;2023-11-18T01:58:00;2.27;2.27;1.37
64861;PMS5003;62652;42.274;-71.436;2023-11-18T01:59:00;2.03;1.73;1.03
64861;PMS5003;62652;42.274;-71.436;2023-11-18T02:00:00;2.87;2.37;0.87
64861;PMS5003;62652;42.274;-71.436;2023-11-18T02:01:00;2.20;2.00;1.20
64861;PMS5003;62652;42.274;-71.436;2023-11-18T02:02:00;3.00;2.90;2.00
64861;PMS5003;62652;42.274;-71.436;2023-11-18T02:03:00;2.07;2.07;1.57
64861;PMS5003;62652;42.274;-71.436;2023-11-18T02:04:00;2.63;2.63;1.63
64861;PMS5003;62652;42.274;-71.436;2023-11-18T02:05:00;2.00;2.00;1.80
64861;PMS5003;62652;42.274;-71.436;2023-11-18T02:06:00;3.20;3.00;2.00
64861;PMS5003;62652;42.274;-71.436;2023-11-18T02:07:00;3.10;2.30;1.90
64861;PMS5003;62652;42.274;-71.436;2023-11-18T02:08:00;2.57;1.87;0.77
64861;PMS5003;62652;42.274;-71.436;2023-11-18T02:09:00;3.53;2.73;1.73
64861;PMS5003;62652;42.274;-71.436;2023-11-18T02:10:00;1.63;1.63;1.13
64861;PMS5003;62652;42.274;-71.436;2023-11-18T02:11:01;1.43;1.43;0.73
64861;PMS5003;62652;42.274;-71.436;2023-11-18T02:12:03;4.27;2.97;1.97
64861;PMS5003;62652;42.274;-71.436;2023-11-18T02:13:03;2.33;1.93;0.93
64861;PMS5003;62652;42.274;-71.436;2023-11-18T02:14:00;4.57;3.17;1.87
64861;PMS5003;62652;42.274;-71.436;2023-11-18T02:15:00;4.27;3.77;2.40
64861;PMS5003;62652;42.274;-71.436;2023-11-18T02:16:00;3.67;3.67;2.07
64861;PMS5003;62652;42.274;-71.436;2023-11-18T02:17:02;2.80;2.80;1.90
64861;PMS5003;62652;42.274;-71.436;2023-11-18T02:18:01;2.30;2.20;1.30
64861;PMS5003;62652;42.274;-71.436;2023-11-18T02:19:00;2.20;2.00;1.40
64861;PMS5003;62652;42.274;-71.436;2023-11-18T02:20:00;2.33;2.33;1.13
64861;PMS5003;62652;42.274;-71.436;2023-11-18T02:21:00;3.13;2.83;1.83
64861;PMS5003;62652;42.274;-71.436;2023-11-18T02:22:00;3.90;3.20;2.10
64861;PMS5003;62652;42.274;-71.436;2023-11-18T02:23:00;2.80;2.20;2.00
64861;PMS5003;62652;42.274;-71.436;2023-11-18T02:24:00;2.20;2.20;2.00
64861;PMS5003;62652;42.274;-71.436;2023-11-18T02:25:01;2.90;2.80;2.00
64861;PMS5003;62652;42.274;-71.436;2023-11-18T02:26:00;4.20;2.80;2.10
64861;PMS5003;62652;42.274;-71.436;2023-11-18T02:27:00;2.40;2.40;2.00
64861;PMS5003;62652;42.274;-71.436;2023-11-18T02:28:00;3.40;3.30;1.90
64861;PMS5003;62652;42.274;-71.436;2023-11-18T02:29:00;3.40;2.80;1.60
64861;PMS5003;62652;42.274;-71.436;2023-11-18T02:30:00;2.97;2.57;1.77
64861;PMS5003;62652;42.274;-71.436;2023-11-18T02:31:01;3.30;2.00;1.40
64861;PMS5003;62652;42.274;-71.436;2023-11-18T02:32:02;4.30;3.10;1.90
64861;PMS5003;62652;42.274;-71.436;2023-11-18T02:33:02;3.60;3.00;1.80
64861;PMS5003;62652;42.274;-71.436;2023-11-18T02:34:00;3.60;3.20;2.00
64861;PMS5003;62652;42.274;-71.436;2023-11-18T02:35:01;5.57;4.37;2.27
64861;PMS5003;62652;42.274;-71.436;2023-11-18T02:36:02;2.90;2.80;1.80
64861;PMS5003;62652;42.274;-71.436;2023-11-18T02:37:00;2.37;2.07;1.77
64861;PMS5003;62652;42.274;-71.436;2023-11-18T02:38:00;2.70;2.60;1.60
64861;PMS5003;62652;42.274;-71.436;2023-11-18T02:39:00;4.23;1.43;1.33
64861;PMS5003;62652;42.274;-71.436;2023-11-18T02:40:01;2.37;1.87;1.07
64861;PMS5003;62652;42.274;-71.436;2023-11-18T02:41:00;2.07;2.07;1.57
64861;PMS5003;62652;42.274;-71.436;2023-11-18T02:42:01;3.00;3.00;2.00
64861;PMS5003;62652;42.274;-71.436;2023-11-18T02:43:00;2.63;1.93;1.43
64861;PMS5003;62652;42.274;-71.436;2023-11-18T02:44:00;2.30;1.60;1.10
64861;PMS5003;62652;42.274;-71.436;2023-11-18T02:45:00;3.77;2.67;1.87
64861;PMS5003;62652;42.274;-71.436;2023-11-18T02:46:00;3.77;3.27;1.87
64861;PMS5003;62652;42.274;-71.436;2023-11-18T02:47:00;3.07;2.87;1.87
64861;PMS5003;62652;42.274;-71.436;2023-11-18T02:48:00;2.30;2.20;1.40
64861;PMS5003;62652;42.274;-71.436;2023-11-18T02:49:00;2.20;2.20;2.00
64861;PMS5003;62652;42.274;-71.436;2023-11-18T02:50:00;3.40;2.70;2.00
64861;PMS5003;62652;42.274;-71.436;2023-11-18T02:51:00;3.90;2.80;2.00
64861;PMS5003;62652;42.274;-71.436;2023-11-18T02:52:00;2.87;2.77;1.47
64861;PMS5003;62652;42.274;-71.436;2023-11-18T02:53:00;2.70;2.70;1.90
64861;PMS5003;62652;42.274;-71.436;2023-11-18T02:54:00;3.70;3.70;2.90
64861;PMS5003;62652;42.274;-71.436;2023-11-18T02:55:00;2.60;2.60;1.80
64861;PMS5003;62652;42.274;-71.436;2023-11-18T02:56:00;2.93;2.83;1.53
64861;PMS5003;62652;42.274;-71.436;2023-11-18T02:57:00;3.17;3.17;1.47
64861;PMS5003;62652;42.274;-71.436;2023-11-18T02:58:00;3.50;2.80;1.70
64861;PMS5003;62652;42.274;-71.436;2023-11-18T02:59:00;4.40;3.30;2.00
64861;PMS5003;62652;42.274;-71.436;2023-11-18T03:00:01;2.80;2.00;1.70
64861;PMS5003;62652;42.274;-71.436;2023-11-18T03:01:00;2.77;2.77;2.07
64861;PMS5003;62652;42.274;-71.436;2023-11-18T03:02:00;4.57;3.97;3.07
64861;PMS5003;62652;42.274;-71.436;2023-11-18T03:03:00;4.00;2.80;2.00
64861;PMS5003;62652;42.274;-71.436;2023-11-18T03:04:00;3.80;3.40;2.10
64861;PMS5003;62652;42.274;-71.436;2023-11-18T03:05:00;3.50;3.50;1.90
64861;PMS5003;62652;42.274;-71.436;2023-11-18T03:06:00;1.73;1.73;1.33
64861;PMS5003;62652;42.274;-71.436;2023-11-18T03:07:00;2.53;2.33;1.43
64861;PMS5003;62652;42.274;-71.436;2023-11-18T03:08:00;3.90;3.90;2.10
64861;PMS5003;62652;42.274;-71.436;2023-11-18T03:09:00;3.20;2.10;1.60
64861;PMS5003;62652;42.274;-71.436;2023-11-18T03:10:00;2.63;2.63;1.53
64861;PMS5003;62652;42.274;-71.436;2023-11-18T03:11:00;1.77;1.77;0.77
64861;PMS5003;62652;42.274;-71.436;2023-11-18T03:12:00;3.83;3.53;2.43
64861;PMS5003;62652;42.274;-71.436;2023-11-18T03:13:00;4.00;3.40;2.30
64861;PMS5003;62652;42.274;-71.436;2023-11-18T03:14:00;3.60;3.00;2.00
64861;PMS5003;62652;42.274;-71.436;2023-11-18T03:15:00;2.80;2.80;1.50
64861;PMS5003;62652;42.274;-71.436;2023-11-18T03:16:00;3.00;2.10;1.30
64861;PMS5003;62652;42.274;-71.436;2023-11-18T03:17:00;2.57;2.57;1.47
64861;PMS5003;62652;42.274;-71.436;2023-11-18T03:18:00;3.80;2.80;1.80
64861;PMS5003;62652;42.274;-71.436;2023-11-18T03:19:00;2.40;2.00;1.10
64861;PMS5003;62652;42.274;-71.436;2023-11-18T03:20:00;1.73;1.73;0.93
64861;PMS5003;62652;42.274;-71.436;2023-11-18T03:21:00;2.63;1.83;1.23
64861;PMS5003;62652;42.274;-71.436;2023-11-18T03:22:00;3.87;3.47;2.07
64861;PMS5003;62652;42.274;-71.436;2023-11-18T03:23:00;4.60;3.80;2.10
64861;PMS5003;62652;42.274;-71.436;2023-11-18T03:24:00;2.00;2.00;1.90
64861;PMS5003;62652;42.274;-71.436;2023-11-18T03:25:00;3.00;2.10;1.90
64861;PMS5003;62652;42.274;-71.436;2023-11-18T03:26:00;4.67;3.87;2.87
64861;PMS5003;62652;42.274;-71.436;2023-11-18T03:27:00;2.73;2.23;1.33
64861;PMS5003;62652;42.274;-71.436;2023-11-18T03:28:00;4.50;2.80;1.70
64861;PMS5003;62652;42.274;-71.436;2023-11-18T03:29:00;3.83;3.53;1.63
64861;PMS5003;62652;42.274;-71.436;2023-11-18T03:30:00;2.50;1.80;1.30
64861;PMS5003;62652;42.274;-71.436;2023-11-18T03:31:00;2.53;2.03;0.83
64861;PMS5003;62652;42.274;-71.436;2023-11-18T03:32:00;3.23;2.83;1.83
64861;PMS5003;62652;42.274;-71.436;2023-11-18T03:33:00;4.07;3.37;2.37
64861;PMS5003;62652;42.274;-71.436;2023-11-18T03:34:00;4.07;3.47;2.27
64861;PMS5003;62652;42.274;-71.436;2023-11-18T03:35:00;4.67;3.57;2.47
64861;PMS5003;62652;42.274;-71.436;2023-11-18T03:36:00;3.47;3.17;2.07
64861;PMS5003;62652;42.274;-71.436;2023-11-18T03:37:00;2.70;2.70;2.00
64861;PMS5003;62652;42.274;-71.436;2023-11-18T03:38:00;1.77;1.77;1.07
64861;PMS5003;62652;42.274;-71.436;2023-11-18T03:39:00;2.80;2.80;2.20
64861;PMS5003;62652;42.274;-71.436;2023-11-18T03:40:00;3.43;2.83;1.53
64861;PMS5003;62652;42.274;-71.436;2023-11-18T03:41:00;4.00;2.90;2.00
64861;PMS5003;62652;42.274;-71.436;2023-11-18T03:42:00;2.47;2.47;1.67
64861;PMS5003;62652;42.274;-71.436;2023-11-18T03:43:00;2.37;2.17;1.37
64861;PMS5003;62652;42.274;-71.436;2023-11-18T03:44:00;4.60;4.40;1.90
64861;PMS5003;62652;42.274;-71.436;2023-11-18T03:45:00;5.80;3.70;2.30
64861;PMS5003;62652;42.274;-71.436;2023-11-18T03:46:00;2.27;1.77;0.97
64861;PMS5003;62652;42.274;-71.436;2023-11-18T03:47:00;3.07;2.77;1.87
64861;PMS5003;62652;42.274;-71.436;2023-11-18T03:48:00;3.10;2.20;1.50
64861;PMS5003;62652;42.274;-71.436;2023-11-18T03:49:00;4.90;3.30;2.00
64861;PMS5003;62652;42.274;-71.436;2023-11-18T03:50:00;4.00;3.70;1.90
64861;PMS5003;62652;42.274;-71.436;2023-11-18T03:51:01;3.53;3.03;1.93
64861;PMS5003;62652;42.274;-71.436;2023-11-18T03:52:00;3.57;3.27;2.17
64861;PMS5003;62652;42.274;-71.436;2023-11-18T03:53:00;3.93;2.73;1.53
64861;PMS5003;62652;42.274;-71.436;2023-11-18T03:54:00;4.10;3.10;2.00
64861;PMS5003;62652;42.274;-71.436;2023-11-18T03:55:02;4.50;4.10;2.90
64861;PMS5003;62652;42.274;-71.436;2023-11-18T03:56:00;3.80;3.20;2.10
64861;PMS5003;62652;42.274;-71.436;2023-11-18T03:57:00;3.70;2.80;1.90
64861;PMS5003;62652;42.274;-71.436;2023-11-18T03:58:00;3.67;3.67;2.37
64861;PMS5003;62652;42.274;-71.436;2023-11-18T03:59:00;3.50;3.20;1.90
64861;PMS5003;62652;42.274;-71.436;2023-11-18T04:00:00;3.40;3.20;2.30
64861;PMS5003;62652;42.274;-71.436;2023-11-18T04:01:00;4.30;3.60;2.40
64861;PMS5003;62652;42.274;-71.436;2023-11-18T04:02:00;4.33;3.53;1.83
64861;PMS5003;62652;42.274;-71.436;2023-11-18T04:03:00;2.50;2.50;1.40
64861;PMS5003;62652;42.274;-71.436;2023-11-18T04:04:00;3.40;3.10;2.00
64861;PMS5003;62652;42.274;-71.436;2023-11-18T04:05:00;2.97;2.77;2.47
64861;PMS5003;62652;42.274;-71.436;2023-11-18T04:06:00;2.80;2.70;2.00
64861;PMS5003;62652;42.274;-71.436;2023-11-18T04:07:00;3.70;3.20;2.30
64861;PMS5003;62652;42.274;-71.436;2023-11-18T04:08:00;2.90;2.40;1.90
64861;PMS5003;62652;42.274;-71.436;2023-11-18T04:09:00;3.80;2.80;2.10
64861;PMS5003;62652;42.274;-71.436;2023-11-18T04:10:00;3.57;3.57;2.27
64861;PMS5003;62652;42.274;-71.436;2023-11-18T04:11:00;4.60;4.10;3.10
64861;PMS5003;62652;42.274;-71.436;2023-11-18T04:12:00;4.00;3.70;2.50
64861;PMS5003;62652;42.274;-71.436;2023-11-18T04:13:00;4.50;3.40;1.90
64861;PMS5003;62652;42.274;-71.436;2023-11-18T04:14:00;3.37;2.67;1.77
64861;PMS5003;62652;42.274;-71.436;2023-11-18T04:15:00;3.97;3.17;2.67
64861;PMS5003;62652;42.274;-71.436;2023-11-18T04:16:00;4.50;3.80;2.30
64861;PMS5003;62652;42.274;-71.436;2023-11-18T04:17:00;4.40;3.90;2.80
64861;PMS5003;62652;42.274;-71.436;2023-11-18T04:18:00;3.80;3.80;1.90
64861;PMS5003;62652;42.274;-71.436;2023-11-18T04:19:00;3.70;3.50;2.20
64861;PMS5003;62652;42.274;-71.436;2023-11-18T04:20:00;3.50;3.50;1.90
64861;PMS5003;62652;42.274;-71.436;2023-11-18T04:21:00;3.37;2.87;1.07
64861;PMS5003;62652;42.274;-71.436;2023-11-18T04:22:00;5.60;4.10;2.90
64861;PMS5003;62652;42.274;-71.436;2023-11-18T04:23:00;4.30;3.70;2.00
64861;PMS5003;62652;42.274;-71.436;2023-11-18T04:24:00;4.37;3.87;2.87
64861;PMS5003;62652;42.274;-71.436;2023-11-18T04:25:00;3.60;2.70;1.90
64861;PMS5003;62652;42.274;-71.436;2023-11-18T04:26:00;3.10;2.80;1.70
64861;PMS5003;62652;42.274;-71.436;2023-11-18T04:27:00;3.50;3.00;1.90
64861;PMS5003;62652;42.274;-71.436;2023-11-18T04:28:00;3.10;3.00;2.20
64861;PMS5003;62652;42.274;-71.436;2023-11-18T04:29:00;4.60;3.50;1.90
64861;PMS5003;62652;42.274;-71.436;2023-11-18T04:30:00;3.60;3.30;2.20
64861;PMS5003;62652;42.274;-71.436;2023-11-18T04:31:00;4.37;3.07;2.67
64861;PMS5003;62652;42.274;-71.436;2023-11-18T04:32:00;3.90;3.60;2.80
64861;PMS5003;62652;42.274;-71.436;2023-11-18T04:33:00;5.80;5.80;2.93
64861;PMS5003;62652;42.274;-71.436;2023-11-18T04:34:00;3.50;3.00;2.40
64861;PMS5003;62652;42.274;-71.436;2023-11-18T04:35:00;5.40;3.90;2.90
64861;PMS5003;62652;42.274;-71.436;2023-11-18T04:36:00;4.50;4.50;2.70
64861;PMS5003;62652;42.274;-71.436;2023-11-18T04:37:00;4.27;3.27;1.87
64861;PMS5003;62652;42.274;-71.436;2023-11-18T04:38:00;3.83;3.83;3.03
64861;PMS5003;62652;42.274;-71.436;2023-11-18T04:39:00;3.40;2.70;2.10
64861;PMS5003;62652;42.274;-71.436;2023-11-18T04:40:00;4.20;3.90;2.80
64861;PMS5003;62652;42.274;-71.436;2023-11-18T04:41:00;5.63;4.33;3.00
64861;PMS5003;62652;42.274;-71.436;2023-11-18T04:42:00;2.97;2.67;1.77
64861;PMS5003;62652;42.274;-71.436;2023-11-18T04:43:00;4.67;3.97;2.77
64861;PMS5003;62652;42.274;-71.436;2023-11-18T04:44:00;4.00;4.00;2.20
64861;PMS5003;62652;42.274;-71.436;2023-11-18T04:45:00;2.90;2.90;2.10
64861;PMS5003;62652;42.274;-71.436;2023-11-18T04:46:00;3.80;3.80;2.10
64861;PMS5003;62652;42.274;-71.436;2023-11-18T04:47:00;3.30;2.60;2.00
64861;PMS5003;62652;42.274;-71.436;2023-11-18T04:48:00;5.17;2.97;1.87
64861;PMS5003;62652;42.274;-71.436;2023-11-18T04:49:00;5.40;4.80;2.70
64861;PMS5003;62652;42.274;-71.436;2023-11-18T04:50:00;4.50;3.80;2.60
64861;PMS5003;62652;42.274;-71.436;2023-11-18T04:51:00;5.40;4.20;2.10
64861;PMS5003;62652;42.274;-71.436;2023-11-18T04:52:00;4.97;4.43;2.63
64861;PMS5003;62652;42.274;-71.436;2023-11-18T04:53:00;3.40;2.70;1.80
64861;PMS5003;62652;42.274;-71.436;2023-11-18T04:54:00;4.27;3.27;2.07
64861;PMS5003;62652;42.274;-71.436;2023-11-18T04:55:00;4.80;4.40;2.80
64861;PMS5003;62652;42.274;-71.436;2023-11-18T04:56:00;5.20;4.60;2.90
64861;PMS5003;62652;42.274;-71.436;2023-11-18T04:57:00;3.30;2.80;1.80
64861;PMS5003;62652;42.274;-71.436;2023-11-18T04:58:00;3.30;3.30;2.00
64861;PMS5003;62652;42.274;-71.436;2023-11-18T04:59:00;5.40;5.20;3.50
64861;PMS5003;62652;42.274;-71.436;2023-11-18T05:00:01;2.37;2.27;1.97
64861;PMS5003;62652;42.274;-71.436;2023-11-18T05:01:00;2.60;2.10;1.60
64861;PMS5003;62652;42.274;-71.436;2023-11-18T05:02:00;4.87;4.47;3.07
64861;PMS5003;62652;42.274;-71.436;2023-11-18T05:03:00;4.20;3.90;3.00
64861;PMS5003;62652;42.274;-71.436;2023-11-18T05:04:00;5.00;3.70;2.90
64861;PMS5003;62652;42.274;-71.436;2023-11-18T05:05:00;4.20;3.80;2.30
64861;PMS5003;62652;42.274;-71.436;2023-11-18T05:06:00;4.50;3.60;2.80
64861;PMS5003;62652;42.274;-71.436;2023-11-18T05:07:00;4.97;4.07;2.77
64861;PMS5003;62652;42.274;-71.436;2023-11-18T05:08:00;3.90;3.70;2.80
64861;PMS5003;62652;42.274;-71.436;2023-11-18T05:09:00;5.10;4.60;3.00
64861;PMS5003;62652;42.274;-71.436;2023-11-18T05:10:00;3.97;3.97;2.77
64861;PMS5003;62652;42.274;-71.436;2023-11-18T05:11:00;5.93;5.53;3.13
64861;PMS5003;62652;42.274;-71.436;2023-11-18T05:12:00;3.60;3.60;2.60
64861;PMS5003;62652;42.274;-71.436;2023-11-18T05:13:00;4.27;4.27;2.97
64861;PMS5003;62652;42.274;-71.436;2023-11-18T05:14:00;5.30;4.40;3.40
64861;PMS5003;62652;42.274;-71.436;2023-11-18T05:15:00;6.30;4.50;2.60
64861;PMS5003;62652;42.274;-71.436;2023-11-18T05:16:01;6.50;4.90;3.10
64861;PMS5003;62652;42.274;-71.436;2023-11-18T05:17:00;5.13;4.23;2.83
64861;PMS5003;62652;42.274;-71.436;2023-11-18T05:18:00;5.27;4.37;3.57
64861;PMS5003;62652;42.274;-71.436;2023-11-18T05:19:00;4.73;3.93;2.33
64861;PMS5003;62652;42.274;-71.436;2023-11-18T05:20:00;4.00;4.00;3.00
64861;PMS5003;62652;42.274;-71.436;2023-11-18T05:21:00;4.40;3.40;2.30
64861;PMS5003;62652;42.274;-71.436;2023-11-18T05:22:00;4.47;3.87;2.97
64861;PMS5003;62652;42.274;-71.436;2023-11-18T05:23:01;4.57;3.97;2.87
64861;PMS5003;62652;42.274;-71.436;2023-11-18T05:24:00;4.23;3.93;2.43
64861;PMS5003;62652;42.274;-71.436;2023-11-18T05:25:00;4.47;3.97;2.77
64861;PMS5003;62652;42.274;-71.436;2023-11-18T05:26:00;5.00;5.00;3.20
64861;PMS5003;62652;42.274;-71.436;2023-11-18T05:27:00;3.70;3.20;2.20
64861;PMS5003;62652;42.274;-71.436;2023-11-18T05:28:00;5.20;4.60;2.90
64861;PMS5003;62652;42.274;-71.436;2023-11-18T05:29:00;3.70;3.50;2.80
64861;PMS5003;62652;42.274;-71.436;2023-11-18T05:30:00;5.23;4.83;3.03
64861;PMS5003;62652;42.274;-71.436;2023-11-18T05:31:00;4.50;4.50;2.90
64861;PMS5003;62652;42.274;-71.436;2023-11-18T05:32:00;6.00;5.40;3.90
64861;PMS5003;62652;42.274;-71.436;2023-11-18T05:33:02;6.83;5.33;3.13
64861;PMS5003;62652;42.274;-71.436;2023-11-18T05:34:00;5.60;5.60;3.40
64861;PMS5003;62652;42.274;-71.436;2023-11-18T05:35:00;5.37;4.37;3.07
64861;PMS5003;62652;42.274;-71.436;2023-11-18T05:36:00;5.10;4.00;2.90
64861;PMS5003;62652;42.274;-71.436;2023-11-18T05:37:00;6.50;6.30;4.00
64861;PMS5003;62652;42.274;-71.436;2023-11-18T05:38:00;5.40;5.00;3.80
64861;PMS5003;62652;42.274;-71.436;2023-11-18T05:39:00;3.87;3.37;2.57
64861;PMS5003;62652;42.274;-71.436;2023-11-18T05:40:00;6.40;5.00;3.80
64861;PMS5003;62652;42.274;-71.436;2023-11-18T05:41:00;4.67;4.37;2.67